sensor_id;sensor_type;location;lat;lon;timestamp;pressure;altitude;pressure_sealevel;temperature;humidity
36014;BME280;22275;43.208;27.620;2023-05-19T00:01:02;100987.91;;;20.02;100.00
36014;BME280;22275;43.208;27.620;2023-05-19T00:03:30;100994.75;;;19.77;100.00
36014;BME280;22275;43.208;27.620;2023-05-19T00:06:01;100998.41;;;19.38;100.00
36014;BME280;22275;43.208;27.620;2023-05-19T00:08:30;100996.44;;;19.59;100.00
36014;BME280;22275;43.208;27.620;2023-05-19T00:10:58;101000.69;;;19.42;100.00
36014;BME280;22275;43.208;27.620;2023-05-19T00:13:27;101000.13;;;19.39;100.00
36014;BME280;22275;43.208;27.620;2023-05-19T00:15:55;101006.88;;;19.43;100.00
36014;BME280;22275;43.208;27.620;2023-05-19T00:18:23;100992.19;;;19.85;100.00
36014;BME280;22275;43.208;27.620;2023-05-19T00:20:51;100991.03;;;19.97;100.00
36014;BME280;22275;43.208;27.620;2023-05-19T00:23:20;100995.69;;;20.42;100.00
36014;BME280;22275;43.208;27.620;2023-05-19T00:25:47;100986.81;;;20.41;100.00
36014;BME280;22275;43.208;27.620;2023-05-19T00:28:15;100996.97;;;20.38;100.00
36014;BME280;22275;43.208;27.620;2023-05-19T00:30:42;100997.63;;;20.49;100.00
36014;BME280;22275;43.208;27.620;2023-05-19T00:33:09;100998.22;;;19.87;100.00
36014;BME280;22275;43.208;27.620;2023-05-19T00:35:36;101011.66;;;19.39;100.00
36014;BME280;22275;43.208;27.620;2023-05-19T00:38:05;101012.47;;;19.30;100.00
36014;BME280;22275;43.208;27.620;2023-05-19T00:40:34;101010.94;;;19.18;100.00
36014;BME280;22275;43.208;27.620;2023-05-19T00:43:01;100996.41;;;18.92;100.00
36014;BME280;22275;43.208;27.620;2023-05-19T00:45:30;101018.66;;;18.62;100.00
36014;BME280;22275;43.208;27.620;2023-05-19T00:47:57;101022.34;;;18.61;100.00
36014;BME280;22275;43.208;27.620;2023-05-19T00:50:25;101024.59;;;18.45;100.00
36014;BME280;22275;43.208;27.620;2023-05-19T00:52:53;101015.72;;;18.35;100.00
36014;BME280;22275;43.208;27.620;2023-05-19T00:55:21;101019.38;;;18.34;100.00
36014;BME280;22275;43.208;27.620;2023-05-19T00:57:51;101018.63;;;18.22;100.00
36014;BME280;22275;43.208;27.620;2023-05-19T01:00:19;101021.69;;;18.18;100.00
36014;BME280;22275;43.208;27.620;2023-05-19T01:02:48;101030.97;;;18.23;100.00
36014;BME280;22275;43.208;27.620;2023-05-19T01:05:15;101027.59;;;18.21;100.00
36014;BME280;22275;43.208;27.620;2023-05-19T01:07:43;101031.25;;;18.20;100.00
36014;BME280;22275;43.208;27.620;2023-05-19T01:10:11;101038.09;;;18.44;100.00
36014;BME280;22275;43.208;27.620;2023-05-19T01:12:39;101034.09;;;18.28;100.00
36014;BME280;22275;43.208;27.620;2023-05-19T01:15:09;101037.72;;;18.48;100.00
36014;BME280;22275;43.208;27.620;2023-05-19T01:17:45;101042.53;;;19.04;100.00
36014;BME280;22275;43.208;27.620;2023-05-19T01:20:19;101045.47;;;19.01;100.00
36014;BME280;22275;43.208;27.620;2023-05-19T01:23:17;101046.75;;;19.25;100.00
36014;BME280;22275;43.208;27.620;2023-05-19T01:26:28;101047.56;;;18.97;100.00
36014;BME280;22275;43.208;27.620;2023-05-19T01:29:11;101042.81;;;19.01;100.00
36014;BME280;22275;43.208;27.620;2023-05-19T01:31:47;101053.84;;;19.45;100.00
36014;BME280;22275;43.208;27.620;2023-05-19T01:34:16;101051.53;;;19.12;100.00
36014;BME280;22275;43.208;27.620;2023-05-19T01:36:44;101043.09;;;19.17;100.00
36014;BME280;22275;43.208;27.620;2023-05-19T01:39:14;101042.66;;;19.02;100.00
36014;BME280;22275;43.208;27.620;2023-05-19T01:41:43;101050.25;;;19.07;100.00
36014;BME280;22275;43.208;27.620;2023-05-19T01:44:12;101048.53;;;18.86;100.00
36014;BME280;22275;43.208;27.620;2023-05-19T01:46:41;101054.78;;;18.66;100.00
36014;BME280;22275;43.208;27.620;2023-05-19T01:49:12;101058.78;;;18.81;100.00
36014;BME280;22275;43.208;27.620;2023-05-19T01:51:40;101039.53;;;18.87;100.00
36014;BME280;22275;43.208;27.620;2023-05-19T01:54:08;101049.13;;;18.50;100.00
36014;BME280;22275;43.208;27.620;2023-05-19T01:56:41;101051.16;;;18.77;100.00
36014;BME280;22275;43.208;27.620;2023-05-19T01:59:24;101057.34;;;18.77;100.00
36014;BME280;22275;43.208;27.620;2023-05-19T02:01:56;101057.34;;;18.77;100.00
36014;BME280;22275;43.208;27.620;2023-05-19T02:04:41;101067.59;;;18.01;100.00
36014;BME280;22275;43.208;27.620;2023-05-19T02:07:14;101061.66;;;17.88;100.00
36014;BME280;22275;43.208;27.620;2023-05-19T02:09:59;101066.13;;;18.08;100.00
36014;BME280;22275;43.208;27.620;2023-05-19T02:12:32;101072.38;;;17.65;100.00
36014;BME280;22275;43.208;27.620;2023-05-19T02:15:04;101073.03;;;17.58;100.00
36014;BME280;22275;43.208;27.620;2023-05-19T02:17:34;101076.31;;;17.82;100.00
36014;BME280;22275;43.208;27.620;2023-05-19T02:20:07;101090.47;;;17.83;100.00
36014;BME280;22275;43.208;27.620;2023-05-19T02:22:36;101085.06;;;18.35;100.00
36014;BME280;22275;43.208;27.620;2023-05-19T02:25:03;101086.63;;;18.37;100.00
36014;BME280;22275;43.208;27.620;2023-05-19T02:27:31;101072.88;;;18.42;100.00
36014;BME280;22275;43.208;27.620;2023-05-19T02:29:59;101089.22;;;18.28;100.00
36014;BME280;22275;43.208;27.620;2023-05-19T02:32:26;101085.88;;;18.26;100.00
36014;BME280;22275;43.208;27.620;2023-05-19T02:34:53;101092.25;;;18.14;100.00
36014;BME280;22275;43.208;27.620;2023-05-19T02:37:22;101102.78;;;18.15;100.00
36014;BME280;22275;43.208;27.620;2023-05-19T02:39:50;101099.81;;;18.39;100.00
36014;BME280;22275;43.208;27.620;2023-05-19T02:42:17;101103.47;;;18.38;100.00
36014;BME280;22275;43.208;27.620;2023-05-19T02:44:45;101109.59;;;18.29;100.00
36014;BME280;22275;43.208;27.620;2023-05-19T02:47:14;101108.63;;;18.09;100.00
36014;BME280;22275;43.208;27.620;2023-05-19T02:49:41;101118.97;;;18.03;100.00
36014;BME280;22275;43.208;27.620;2023-05-19T02:52:09;101106.38;;;18.05;100.00
36014;BME280;22275;43.208;27.620;2023-05-19T02:54:38;101109.78;;;18.16;100.00
36014;BME280;22275;43.208;27.620;2023-05-19T02:57:05;101105.22;;;18.28;100.00
36014;BME280;22275;43.208;27.620;2023-05-19T02:59:32;101108.81;;;18.38;100.00
36014;BME280;22275;43.208;27.620;2023-05-19T03:02:01;101113.22;;;18.28;100.00
36014;BME280;22275;43.208;27.620;2023-05-19T03:04:28;101118.22;;;17.80;100.00
36014;BME280;22275;43.208;27.620;2023-05-19T03:06:56;101105.34;;;17.96;100.00
36014;BME280;22275;43.208;27.620;2023-05-19T03:09:23;101112.41;;;18.27;100.00
36014;BME280;22275;43.208;27.620;2023-05-19T03:11:52;101119.16;;;17.90;100.00
36014;BME280;22275;43.208;27.620;2023-05-19T03:14:19;101109.66;;;17.97;100.00
36014;BME280;22275;43.208;27.620;2023-05-19T03:16:48;101120.00;;;18.32;100.00
36014;BME280;22275;43.208;27.620;2023-05-19T03:19:15;101134.91;;;18.34;100.00
36014;BME280;22275;43.208;27.620;2023-05-19T03:21:42;101133.69;;;18.18;100.00
36014;BME280;22275;43.208;27.620;2023-05-19T03:24:09;101126.91;;;18.14;100.00
36014;BME280;22275;43.208;27.620;2023-05-19T03:26:36;101137.44;;;18.15;100.00
36014;BME280;22275;43.208;27.620;2023-05-19T03:29:05;101137.38;;;18.06;100.00
36014;BME280;22275;43.208;27.620;2023-05-19T03:31:32;101132.81;;;17.97;100.00
36014;BME280;22275;43.208;27.620;2023-05-19T03:33:59;101138.19;;;17.86;100.00
36014;BME280;22275;43.208;27.620;2023-05-19T03:36:27;101137.63;;;17.82;100.00
36014;BME280;22275;43.208;27.620;2023-05-19T03:38:56;101143.25;;;17.89;100.00
36014;BME280;22275;43.208;27.620;2023-05-19T03:41:23;101144.47;;;17.96;100.00
36014;BME280;22275;43.208;27.620;2023-05-19T03:43:50;101145.81;;;17.90;100.00
36014;BME280;22275;43.208;27.620;2023-05-19T03:46:19;101142.38;;;18.20;100.00
36014;BME280;22275;43.208;27.620;2023-05-19T03:48:46;101147.25;;;17.94;100.00
36014;BME280;22275;43.208;27.620;2023-05-19T03:51:13;101143.50;;;17.86;100.00
36014;BME280;22275;43.208;27.620;2023-05-19T03:53:40;101161.69;;;18.12;100.00
36014;BME280;22275;43.208;27.620;2023-05-19T03:56:07;101154.50;;;18.24;100.00
36014;BME280;22275;43.208;27.620;2023-05-19T03:58:35;101156.91;;;18.27;100.00
36014;BME280;22275;43.208;27.620;2023-05-19T04:01:03;101153.13;;;18.29;100.00
36014;BME280;22275;43.208;27.620;2023-05-19T04:03:34;101159.47;;;18.49;100.00
36014;BME280;22275;43.208;27.620;2023-05-19T04:06:01;101153.00;;;18.72;100.00
36014;BME280;22275;43.208;27.620;2023-05-19T04:08:28;101158.72;;;18.47;100.00
36014;BME280;22275;43.208;27.620;2023-05-19T04:10:54;101169.44;;;18.77;100.00
36014;BME280;22275;43.208;27.620;2023-05-19T04:13:21;101158.84;;;18.97;100.00
36014;BME280;22275;43.208;27.620;2023-05-19T04:15:48;101161.94;;;19.02;100.00
36014;BME280;22275;43.208;27.620;2023-05-19T04:18:15;101165.03;;;19.37;100.00
36014;BME280;22275;43.208;27.620;2023-05-19T04:20:44;101170.31;;;19.18;100.00
36014;BME280;22275;43.208;27.620;2023-05-19T04:23:11;101171.66;;;18.72;100.00
36014;BME280;22275;43.208;27.620;2023-05-19T04:25:38;101167.84;;;18.96;100.00
36014;BME280;22275;43.208;27.620;2023-05-19T04:28:06;101165.97;;;18.86;100.00
36014;BME280;22275;43.208;27.620;2023-05-19T04:30:34;101169.97;;;19.02;100.00
36014;BME280;22275;43.208;27.620;2023-05-19T04:33:01;101167.53;;;18.48;100.00
36014;BME280;22275;43.208;27.620;2023-05-19T04:35:29;101171.88;;;18.60;100.00
36014;BME280;22275;43.208;27.620;2023-05-19T04:37:59;101155.19;;;18.98;100.00
36014;BME280;22275;43.208;27.620;2023-05-19T04:40:26;101176.66;;;18.86;100.00
36014;BME280;22275;43.208;27.620;2023-05-19T04:42:55;101177.44;;;19.08;100.00
36014;BME280;22275;43.208;27.620;2023-05-19T04:45:23;101178.53;;;18.96;100.00
36014;BME280;22275;43.208;27.620;2023-05-19T04:47:52;101180.25;;;19.16;100.00
36014;BME280;22275;43.208;27.620;2023-05-19T04:50:23;101184.00;;;19.34;100.00
36014;BME280;22275;43.208;27.620;2023-05-19T04:52:50;101177.59;;;19.46;100.00
36014;BME280;22275;43.208;27.620;2023-05-19T04:55:20;101188.00;;;19.59;100.00
36014;BME280;22275;43.208;27.620;2023-05-19T04:57:48;101163.59;;;19.33;100.00
36014;BME280;22275;43.208;27.620;2023-05-19T05:00:17;101166.06;;;19.45;100.00
36014;BME280;22275;43.208;27.620;2023-05-19T05:02:45;101177.09;;;19.81;100.00
36014;BME280;22275;43.208;27.620;2023-05-19T05:05:13;101175.94;;;19.93;100.00
36014;BME280;22275;43.208;27.620;2023-05-19T05:07:41;101173.44;;;20.20;100.00
36014;BME280;22275;43.208;27.620;2023-05-19T05:10:09;101184.84;;;20.32;100.00
36014;BME280;22275;43.208;27.620;2023-05-19T05:12:40;101187.50;;;20.41;100.00
36014;BME280;22275;43.208;27.620;2023-05-19T05:15:11;101176.22;;;20.47;100.00
36014;BME280;22275;43.208;27.620;2023-05-19T05:17:39;101181.28;;;20.50;100.00
36014;BME280;22275;43.208;27.620;2023-05-19T05:20:09;101165.47;;;20.67;100.00
36014;BME280;22275;43.208;27.620;2023-05-19T05:22:37;101174.69;;;20.45;100.00
36014;BME280;22275;43.208;27.620;2023-05-19T05:25:08;101166.97;;;20.88;100.00
36014;BME280;22275;43.208;27.620;2023-05-19T05:27:35;101154.91;;;21.39;100.00
36014;BME280;22275;43.208;27.620;2023-05-19T05:30:05;101144.63;;;21.34;100.00
36014;BME280;22275;43.208;27.620;2023-05-19T05:32:33;101165.75;;;21.10;100.00
36014;BME280;22275;43.208;27.620;2023-05-19T05:35:00;101160.13;;;21.58;100.00
36014;BME280;22275;43.208;27.620;2023-05-19T05:37:27;101160.06;;;22.20;100.00
36014;BME280;22275;43.208;27.620;2023-05-19T05:39:54;101152.69;;;22.66;100.00
36014;BME280;22275;43.208;27.620;2023-05-19T05:42:22;101149.25;;;22.56;100.00
36014;BME280;22275;43.208;27.620;2023-05-19T05:44:50;101154.41;;;22.67;100.00
36014;BME280;22275;43.208;27.620;2023-05-19T05:47:19;101155.97;;;23.11;100.00
36014;BME280;22275;43.208;27.620;2023-05-19T05:49:47;101147.78;;;22.87;100.00
36014;BME280;22275;43.208;27.620;2023-05-19T05:52:14;101156.28;;;23.08;100.00
36014;BME280;22275;43.208;27.620;2023-05-19T05:54:45;101151.69;;;23.34;100.00
36014;BME280;22275;43.208;27.620;2023-05-19T05:57:14;101142.53;;;23.19;100.00
36014;BME280;22275;43.208;27.620;2023-05-19T05:59:41;101160.75;;;23.33;100.00
36014;BME280;22275;43.208;27.620;2023-05-19T06:02:10;101152.59;;;23.09;100.00
36014;BME280;22275;43.208;27.620;2023-05-19T06:04:39;101149.94;;;23.17;100.00
36014;BME280;22275;43.208;27.620;2023-05-19T06:07:07;101148.13;;;22.84;100.00
36014;BME280;22275;43.208;27.620;2023-05-19T06:09:34;101149.88;;;23.01;100.00
36014;BME280;22275;43.208;27.620;2023-05-19T06:12:02;101167.00;;;23.00;100.00
36014;BME280;22275;43.208;27.620;2023-05-19T06:14:29;101160.78;;;23.41;100.00
36014;BME280;22275;43.208;27.620;2023-05-19T06:16:57;101145.59;;;23.90;100.00
36014;BME280;22275;43.208;27.620;2023-05-19T06:19:24;101154.19;;;23.94;100.00
36014;BME280;22275;43.208;27.620;2023-05-19T06:21:54;101153.50;;;23.92;100.00
36014;BME280;22275;43.208;27.620;2023-05-19T06:24:21;101150.78;;;23.68;100.00
36014;BME280;22275;43.208;27.620;2023-05-19T06:26:48;101155.81;;;23.71;100.00
36014;BME280;22275;43.208;27.620;2023-05-19T06:29:16;101152.47;;;23.85;100.00
36014;BME280;22275;43.208;27.620;2023-05-19T06:31:43;101150.19;;;24.14;100.00
36014;BME280;22275;43.208;27.620;2023-05-19T06:34:10;101152.00;;;23.89;100.00
36014;BME280;22275;43.208;27.620;2023-05-19T06:36:42;101149.84;;;24.17;100.00
36014;BME280;22275;43.208;27.620;2023-05-19T06:39:10;101151.53;;;24.34;100.00
36014;BME280;22275;43.208;27.620;2023-05-19T06:41:37;101149.31;;;24.46;100.00
36014;BME280;22275;43.208;27.620;2023-05-19T06:44:05;101153.50;;;24.08;100.00
36014;BME280;22275;43.208;27.620;2023-05-19T06:46:33;101154.06;;;24.20;100.00
36014;BME280;22275;43.208;27.620;2023-05-19T06:49:00;101157.19;;;24.64;100.00
36014;BME280;22275;43.208;27.620;2023-05-19T06:51:28;101152.16;;;24.44;100.00
36014;BME280;22275;43.208;27.620;2023-05-19T06:53:56;101147.78;;;24.51;100.00
36014;BME280;22275;43.208;27.620;2023-05-19T06:56:24;101159.53;;;24.67;100.00
36014;BME280;22275;43.208;27.620;2023-05-19T06:58:51;101153.78;;;24.94;100.00
36014;BME280;22275;43.208;27.620;2023-05-19T07:01:18;101152.78;;;24.79;100.00
36014;BME280;22275;43.208;27.620;2023-05-19T07:03:46;101165.59;;;24.69;100.00
36014;BME280;22275;43.208;27.620;2023-05-19T07:06:13;101146.75;;;25.15;100.00
36014;BME280;22275;43.208;27.620;2023-05-19T07:08:41;101144.59;;;25.50;100.00
36014;BME280;22275;43.208;27.620;2023-05-19T07:11:08;101142.56;;;25.75;100.00
36014;BME280;22275;43.208;27.620;2023-05-19T07:13:38;101124.09;;;25.63;100.00
36014;BME280;22275;43.208;27.620;2023-05-19T07:16:07;101146.69;;;25.32;100.00
36014;BME280;22275;43.208;27.620;2023-05-19T07:18:35;101135.59;;;25.57;100.00
36014;BME280;22275;43.208;27.620;2023-05-19T07:21:02;101143.41;;;25.98;100.00
36014;BME280;22275;43.208;27.620;2023-05-19T07:23:30;101144.47;;;26.11;100.00
36014;BME280;22275;43.208;27.620;2023-05-19T07:25:57;101161.72;;;25.88;100.00
36014;BME280;22275;43.208;27.620;2023-05-19T07:28:24;101163.09;;;25.84;100.00
36014;BME280;22275;43.208;27.620;2023-05-19T07:30:54;101164.28;;;26.04;100.00
36014;BME280;22275;43.208;27.620;2023-05-19T07:33:21;101166.03;;;26.42;100.00
36014;BME280;22275;43.208;27.620;2023-05-19T07:35:49;101178.28;;;26.30;100.00
36014;BME280;22275;43.208;27.620;2023-05-19T07:38:16;101176.53;;;25.92;100.00
36014;BME280;22275;43.208;27.620;2023-05-19T07:40:44;101160.94;;;25.79;100.00
36014;BME280;22275;43.208;27.620;2023-05-19T07:43:11;101171.03;;;26.08;100.00
36014;BME280;22275;43.208;27.620;2023-05-19T07:45:39;101151.00;;;26.25;100.00
36014;BME280;22275;43.208;27.620;2023-05-19T07:48:08;101155.06;;;26.58;100.00
36014;BME280;22275;43.208;27.620;2023-05-19T07:50:35;101178.78;;;26.48;100.00
36014;BME280;22275;43.208;27.620;2023-05-19T07:53:02;101161.06;;;26.98;100.00
36014;BME280;22275;43.208;27.620;2023-05-19T07:55:29;101165.31;;;26.63;100.00
36014;BME280;22275;43.208;27.620;2023-05-19T07:57:56;101166.31;;;26.76;100.00
36014;BME280;22275;43.208;27.620;2023-05-19T08:00:24;101161.91;;;26.83;100.00
36014;BME280;22275;43.208;27.620;2023-05-19T08:02:51;101169.28;;;27.04;100.00
36014;BME280;22275;43.208;27.620;2023-05-19T08:05:20;101170.50;;;27.02;100.00
36014;BME280;22275;43.208;27.620;2023-05-19T08:07:48;101164.69;;;27.05;100.00
36014;BME280;22275;43.208;27.620;2023-05-19T08:10:15;101152.72;;;27.28;100.00
36014;BME280;22275;43.208;27.620;2023-05-19T08:12:43;101155.44;;;27.43;100.00
36014;BME280;22275;43.208;27.620;2023-05-19T08:15:10;101165.97;;;27.53;100.00
36014;BME280;22275;43.208;27.620;2023-05-19T08:17:38;101163.00;;;27.33;100.00
36014;BME280;22275;43.208;27.620;2023-05-19T08:20:06;101157.13;;;27.65;100.00
36014;BME280;22275;43.208;27.620;2023-05-19T08:22:36;101166.03;;;27.59;100.00
36014;BME280;22275;43.208;27.620;2023-05-19T08:25:03;101159.09;;;27.92;100.00
36014;BME280;22275;43.208;27.620;2023-05-19T08:27:31;101173.47;;;27.93;100.00
36014;BME280;22275;43.208;27.620;2023-05-19T08:29:59;101148.03;;;28.36;100.00
36014;BME280;22275;43.208;27.620;2023-05-19T08:32:26;101169.63;;;28.51;100.00
36014;BME280;22275;43.208;27.620;2023-05-19T08:34:54;101170.44;;;28.03;98.70
36014;BME280;22275;43.208;27.620;2023-05-19T08:37:21;101158.94;;;27.58;100.00
36014;BME280;22275;43.208;27.620;2023-05-19T08:39:50;101168.25;;;27.91;100.00
36014;BME280;22275;43.208;27.620;2023-05-19T08:42:17;101152.66;;;28.15;99.61
36014;BME280;22275;43.208;27.620;2023-05-19T08:44:45;101178.25;;;27.91;98.37
36014;BME280;22275;43.208;27.620;2023-05-19T08:47:14;101170.06;;;27.49;100.00
36014;BME280;22275;43.208;27.620;2023-05-19T08:49:44;101154.94;;;27.54;100.00
36014;BME280;22275;43.208;27.620;2023-05-19T08:52:18;101149.09;;;27.93;98.61
36014;BME280;22275;43.208;27.620;2023-05-19T08:54:52;101137.75;;;28.25;97.56
36014;BME280;22275;43.208;27.620;2023-05-19T08:57:22;101147.56;;;28.54;93.75
36014;BME280;22275;43.208;27.620;2023-05-19T08:59:53;101159.81;;;28.50;90.99
36014;BME280;22275;43.208;27.620;2023-05-19T09:02:23;101143.22;;;28.32;88.70
36014;BME280;22275;43.208;27.620;2023-05-19T09:04:52;101139.47;;;28.33;88.50
36014;BME280;22275;43.208;27.620;2023-05-19T09:07:21;101151.03;;;28.69;87.00
36014;BME280;22275;43.208;27.620;2023-05-19T09:09:51;101144.00;;;28.81;83.63
36014;BME280;22275;43.208;27.620;2023-05-19T09:12:21;101138.44;;;29.30;82.94
36014;BME280;22275;43.208;27.620;2023-05-19T09:14:48;101146.78;;;29.29;83.96
36014;BME280;22275;43.208;27.620;2023-05-19T09:17:21;101141.88;;;29.65;82.00
36014;BME280;22275;43.208;27.620;2023-05-19T09:19:50;101136.44;;;29.11;81.06
36014;BME280;22275;43.208;27.620;2023-05-19T09:22:17;101090.41;;;28.56;80.58
36014;BME280;22275;43.208;27.620;2023-05-19T09:24:46;101149.13;;;28.42;86.47
36014;BME280;22275;43.208;27.620;2023-05-19T09:27:20;101138.59;;;28.26;84.73
36014;BME280;22275;43.208;27.620;2023-05-19T09:29:48;101153.44;;;28.09;80.48
36014;BME280;22275;43.208;27.620;2023-05-19T09:32:23;101150.66;;;28.51;80.25
36014;BME280;22275;43.208;27.620;2023-05-19T09:34:50;101165.69;;;28.26;78.86
36014;BME280;22275;43.208;27.620;2023-05-19T09:37:20;101150.31;;;28.88;79.58
36014;BME280;22275;43.208;27.620;2023-05-19T09:39:47;101150.31;;;28.95;78.27
36014;BME280;22275;43.208;27.620;2023-05-19T09:42:19;101160.13;;;27.91;79.67
36014;BME280;22275;43.208;27.620;2023-05-19T09:44:49;101169.94;;;28.14;82.31
36014;BME280;22275;43.208;27.620;2023-05-19T09:47:16;101150.59;;;28.66;79.88
36014;BME280;22275;43.208;27.620;2023-05-19T09:49:46;101157.16;;;28.57;79.29
36014;BME280;22275;43.208;27.620;2023-05-19T09:52:14;101155.22;;;28.72;79.36
36014;BME280;22275;43.208;27.620;2023-05-19T09:54:41;101146.53;;;28.89;78.96
36014;BME280;22275;43.208;27.620;2023-05-19T09:57:08;101138.94;;;29.13;77.07
36014;BME280;22275;43.208;27.620;2023-05-19T09:59:37;101140.97;;;28.63;77.33
36014;BME280;22275;43.208;27.620;2023-05-19T10:02:04;101145.94;;;28.60;76.73
36014;BME280;22275;43.208;27.620;2023-05-19T10:04:31;101151.34;;;28.60;77.58
36014;BME280;22275;43.208;27.620;2023-05-19T10:06:58;101155.56;;;28.96;83.78
36014;BME280;22275;43.208;27.620;2023-05-19T10:09:25;101172.53;;;28.49;73.90
36014;BME280;22275;43.208;27.620;2023-05-19T10:11:53;101152.78;;;28.83;77.05
36014;BME280;22275;43.208;27.620;2023-05-19T10:14:21;101144.13;;;29.07;74.15
36014;BME280;22275;43.208;27.620;2023-05-19T10:16:51;101137.91;;;29.14;76.32
36014;BME280;22275;43.208;27.620;2023-05-19T10:19:19;101145.00;;;29.62;74.88
36014;BME280;22275;43.208;27.620;2023-05-19T10:24:15;101134.16;;;29.75;87.02
36014;BME280;22275;43.208;27.620;2023-05-19T10:26:47;101151.81;;;29.32;98.74
36014;BME280;22275;43.208;27.620;2023-05-19T10:29:16;101146.53;;;29.24;100.00
36014;BME280;22275;43.208;27.620;2023-05-19T10:31:45;101149.75;;;28.99;100.00
36014;BME280;22275;43.208;27.620;2023-05-19T10:34:22;101158.31;;;28.41;100.00
36014;BME280;22275;43.208;27.620;2023-05-19T10:37:02;101142.06;;;28.41;100.00
36014;BME280;22275;43.208;27.620;2023-05-19T10:39:33;101121.25;;;28.48;100.00
36014;BME280;22275;43.208;27.620;2023-05-19T10:42:02;101147.03;;;28.37;100.00
36014;BME280;22275;43.208;27.620;2023-05-19T10:44:38;101137.50;;;28.48;100.00
36014;BME280;22275;43.208;27.620;2023-05-19T10:47:06;101149.75;;;28.65;100.00
36014;BME280;22275;43.208;27.620;2023-05-19T10:49:37;101150.59;;;28.66;100.00
36014;BME280;22275;43.208;27.620;2023-05-19T10:52:11;101144.72;;;28.96;100.00
36014;BME280;22275;43.208;27.620;2023-05-19T10:54:47;101148.38;;;29.17;93.88
36014;BME280;22275;43.208;27.620;2023-05-19T10:57:14;101155.56;;;29.31;100.00
36014;BME280;22275;43.208;27.620;2023-05-19T10:59:41;101162.72;;;29.58;100.00
36014;BME280;22275;43.208;27.620;2023-05-19T11:02:35;101153.88;;;29.30;100.00
36014;BME280;22275;43.208;27.620;2023-05-19T11:05:05;101137.97;;;29.27;100.00
36014;BME280;22275;43.208;27.620;2023-05-19T11:07:33;101129.16;;;29.12;100.00
36014;BME280;22275;43.208;27.620;2023-05-19T11:10:06;101134.72;;;28.35;100.00
36014;BME280;22275;43.208;27.620;2023-05-19T11:12:39;101150.41;;;28.46;100.00
36014;BME280;22275;43.208;27.620;2023-05-19T11:15:08;101148.84;;;28.86;100.00
36014;BME280;22275;43.208;27.620;2023-05-19T11:17:37;101155.28;;;28.57;100.00
36014;BME280;22275;43.208;27.620;2023-05-19T11:20:08;101156.47;;;28.69;100.00
36014;BME280;22275;43.208;27.620;2023-05-19T11:22:36;101146.19;;;28.65;100.00
36014;BME280;22275;43.208;27.620;2023-05-19T11:25:03;101143.75;;;28.76;100.00
36014;BME280;22275;43.208;27.620;2023-05-19T11:27:31;101148.34;;;28.20;100.00
36014;BME280;22275;43.208;27.620;2023-05-19T11:29:58;101154.31;;;28.37;100.00
36014;BME280;22275;43.208;27.620;2023-05-19T11:32:28;101147.56;;;28.05;100.00
36014;BME280;22275;43.208;27.620;2023-05-19T11:34:55;101142.97;;;28.55;100.00
36014;BME280;22275;43.208;27.620;2023-05-19T11:37:23;101137.03;;;29.06;100.00
36014;BME280;22275;43.208;27.620;2023-05-19T11:39:50;101126.88;;;29.22;99.37
36014;BME280;22275;43.208;27.620;2023-05-19T11:42:19;101131.81;;;29.46;99.63
36014;BME280;22275;43.208;27.620;2023-05-19T11:44:46;101127.66;;;29.56;100.00
36014;BME280;22275;43.208;27.620;2023-05-19T11:47:15;101135.03;;;29.22;100.00
36014;BME280;22275;43.208;27.620;2023-05-19T11:49:42;101121.66;;;29.20;92.96
36014;BME280;22275;43.208;27.620;2023-05-19T11:52:10;101106.78;;;29.70;95.81
36014;BME280;22275;43.208;27.620;2023-05-19T11:54:40;101114.88;;;29.44;91.84
36014;BME280;22275;43.208;27.620;2023-05-19T11:57:07;101120.94;;;29.52;87.20
36014;BME280;22275;43.208;27.620;2023-05-19T11:59:36;101131.03;;;29.18;77.88
36014;BME280;22275;43.208;27.620;2023-05-19T12:02:14;101126.38;;;29.46;75.84
36014;BME280;22275;43.208;27.620;2023-05-19T12:04:41;101116.63;;;29.11;68.85
36014;BME280;22275;43.208;27.620;2023-05-19T12:07:11;101121.66;;;29.20;67.38
36014;BME280;22275;43.208;27.620;2023-05-19T12:09:40;101123.00;;;29.44;67.41
36014;BME280;22275;43.208;27.620;2023-05-19T12:12:09;101123.06;;;29.63;69.66
36014;BME280;22275;43.208;27.620;2023-05-19T12:14:38;101112.41;;;29.62;67.19
36014;BME280;22275;43.208;27.620;2023-05-19T12:17:11;101110.41;;;29.97;69.96
36014;BME280;22275;43.208;27.620;2023-05-19T12:19:38;101096.19;;;29.88;69.83
36014;BME280;22275;43.208;27.620;2023-05-19T12:22:07;101090.97;;;30.39;71.18
36014;BME280;22275;43.208;27.620;2023-05-19T12:24:38;101102.88;;;30.25;66.73
36014;BME280;22275;43.208;27.620;2023-05-19T12:27:10;101096.41;;;30.00;65.55
36014;BME280;22275;43.208;27.620;2023-05-19T12:29:39;101116.03;;;29.95;61.73
36014;BME280;22275;43.208;27.620;2023-05-19T12:32:06;101106.44;;;29.93;63.70
36014;BME280;22275;43.208;27.620;2023-05-19T12:34:35;101105.22;;;29.35;62.97
36014;BME280;22275;43.208;27.620;2023-05-19T12:37:03;101098.19;;;28.99;65.92
36014;BME280;22275;43.208;27.620;2023-05-19T12:39:30;101099.66;;;29.02;65.18
36014;BME280;22275;43.208;27.620;2023-05-19T12:42:00;101094.28;;;30.15;61.61
36014;BME280;22275;43.208;27.620;2023-05-19T12:44:28;101096.81;;;29.90;57.47